createdAt,value
2019-03-31T00:07:14.499Z,3.47
2019-03-31T00:12:17.713Z,4.87
2019-03-31T00:17:21.415Z,3.60
2019-03-31T00:22:24.691Z,2.97
2019-03-31T00:27:28.041Z,2.70
2019-03-31T00:32:31.376Z,3.27
2019-03-31T00:37:34.693Z,2.30
2019-03-31T00:42:38.098Z,2.97
2019-03-31T00:47:41.446Z,3.30
2019-03-31T00:52:44.730Z,1.93
2019-03-31T00:57:48.035Z,2.37
2019-03-31T01:02:51.311Z,4.63
2019-03-31T01:07:54.770Z,2.17
2019-03-31T01:12:58.163Z,2.53
2019-03-31T01:18:01.827Z,2.50
2019-03-31T01:23:06.146Z,2.33
2019-03-31T01:28:09.970Z,2.73
2019-03-31T01:33:13.768Z,2.23
2019-03-31T01:38:17.628Z,2.70
2019-03-31T01:43:21.454Z,2.40
2019-03-31T01:48:24.996Z,1.70
2019-03-31T01:53:28.290Z,2.00
2019-03-31T01:58:31.839Z,2.57
2019-03-31T02:03:35.250Z,3.00
2019-03-31T02:08:40.052Z,2.17
2019-03-31T02:13:43.340Z,1.73
2019-03-31T02:24:33.664Z,3.57
2019-03-31T02:29:38.146Z,1.97
2019-03-31T02:34:41.654Z,2.27
2019-03-31T02:39:45.577Z,2.43
2019-03-31T02:44:49.854Z,1.57
2019-03-31T02:49:53.178Z,1.43
2019-03-31T02:54:57.032Z,1.73
2019-03-31T03:00:01.790Z,2.50
2019-03-31T03:05:18.836Z,1.70
2019-03-31T03:10:11.445Z,2.30
2019-03-31T03:15:26.283Z,1.77
2019-03-31T03:20:31.897Z,1.50
2019-03-31T03:25:35.169Z,2.30
2019-03-31T03:30:40.911Z,1.47
2019-03-31T03:35:44.694Z,1.43
2019-03-31T03:40:48.591Z,1.80
2019-03-31T03:45:51.811Z,1.63
2019-03-31T03:50:58.640Z,1.47
2019-03-31T03:56:03.315Z,1.43
2019-03-31T04:01:18.542Z,1.73
2019-03-31T04:06:22.125Z,1.10
2019-03-31T04:11:26.923Z,1.70
2019-03-31T04:16:30.240Z,3.47
2019-03-31T04:21:34.196Z,1.77
2019-03-31T04:26:37.494Z,1.30
2019-03-31T04:31:40.796Z,2.23
2019-03-31T04:36:44.593Z,1.17
2019-03-31T04:41:47.873Z,1.10
2019-03-31T04:46:51.246Z,1.30
2019-03-31T04:51:54.463Z,1.50
2019-03-31T04:56:57.838Z,1.20
2019-03-31T05:02:01.055Z,0.80
2019-03-31T05:07:04.839Z,1.07
2019-03-31T05:12:08.141Z,1.60
2019-03-31T05:17:11.328Z,1.77
2019-03-31T05:22:15.243Z,1.40
2019-03-31T05:27:18.546Z,1.63
2019-03-31T05:32:21.846Z,1.27
2019-03-31T05:37:27.365Z,1.47
2019-03-31T05:42:30.675Z,1.43
2019-03-31T05:47:34.108Z,1.10
2019-03-31T05:52:38.079Z,1.07
2019-03-31T05:57:41.473Z,0.90
2019-03-31T06:02:44.708Z,1.10
2019-03-31T06:07:48.342Z,1.63
2019-03-31T06:12:51.637Z,1.10
2019-03-31T06:17:54.931Z,1.10
2019-03-31T06:22:58.306Z,0.90
2019-03-31T06:28:01.596Z,1.10
2019-03-31T06:33:04.861Z,0.90
2019-03-31T06:38:08.229Z,0.90
2019-03-31T06:43:11.539Z,1.37
2019-03-31T06:48:14.811Z,1.60
2019-03-31T06:53:18.043Z,0.93
2019-03-31T06:58:21.327Z,0.70
2019-03-31T07:03:24.601Z,1.07
2019-03-31T07:08:27.788Z,0.73
2019-03-31T07:13:31.085Z,0.80
2019-03-31T07:18:34.353Z,0.80
2019-03-31T07:23:37.636Z,1.13
2019-03-31T07:28:40.888Z,0.50
2019-03-31T07:33:44.262Z,1.00
2019-03-31T07:38:48.014Z,0.50
2019-03-31T07:43:51.402Z,0.70
2019-03-31T07:48:55.102Z,1.00
2019-03-31T07:53:58.460Z,0.83
2019-03-31T07:59:02.669Z,0.93
2019-03-31T08:04:06.022Z,1.03
2019-03-31T08:09:09.192Z,0.97
2019-03-31T08:14:12.556Z,0.90
2019-03-31T08:19:15.816Z,0.93
2019-03-31T08:24:19.268Z,0.80
2019-03-31T08:29:22.581Z,0.70
2019-03-31T08:34:25.927Z,1.10
2019-03-31T08:39:29.261Z,0.60
2019-03-31T08:44:32.523Z,0.90
2019-03-31T08:49:35.811Z,0.80
2019-03-31T08:54:40.086Z,1.03
2019-03-31T08:59:43.425Z,0.70
2019-03-31T09:04:46.694Z,0.80
2019-03-31T09:09:50.047Z,1.00
2019-03-31T09:14:53.359Z,0.70
2019-03-31T09:19:56.761Z,0.63
2019-03-31T09:25:00.379Z,0.60
2019-03-31T09:30:05.497Z,0.60
2019-03-31T09:35:09.375Z,0.50
2019-03-31T09:40:13.376Z,0.60
2019-03-31T09:45:16.834Z,0.70
2019-03-31T09:50:20.933Z,0.63
2019-03-31T09:55:24.259Z,0.50
2019-03-31T10:00:48.251Z,0.60
2019-03-31T10:05:51.476Z,0.43
2019-03-31T10:10:54.721Z,0.60
2019-03-31T10:15:57.983Z,0.50
2019-03-31T10:21:01.560Z,0.60
2019-03-31T10:26:05.140Z,0.73
2019-03-31T10:31:08.445Z,0.60
2019-03-31T10:36:12.908Z,0.90
2019-03-31T10:41:16.333Z,1.10
2019-03-31T10:46:19.737Z,0.73
2019-03-31T10:51:23.002Z,0.80
2019-03-31T10:56:26.340Z,0.60
2019-03-31T11:01:29.616Z,0.70
2019-03-31T11:06:32.999Z,0.90
2019-03-31T11:11:36.296Z,0.70
2019-03-31T11:16:39.601Z,0.57
2019-03-31T11:22:02.283Z,0.63
2019-03-31T11:27:05.698Z,0.70
2019-03-31T11:32:08.896Z,0.53
2019-03-31T11:37:13.685Z,0.50
2019-03-31T11:42:17.239Z,0.60
2019-03-31T11:47:20.535Z,0.60
2019-03-31T11:52:25.116Z,0.70
2019-03-31T11:57:29.592Z,0.40
2019-03-31T12:02:33.503Z,0.83
2019-03-31T12:07:46.658Z,1.00
2019-03-31T12:12:42.834Z,0.87
2019-03-31T12:17:46.214Z,0.70
2019-03-31T12:22:49.403Z,0.87
2019-03-31T12:27:52.844Z,0.90
2019-03-31T12:32:56.330Z,0.70
2019-03-31T12:37:59.710Z,0.60
2019-03-31T12:43:03.343Z,0.93
2019-03-31T12:48:06.675Z,1.03
2019-03-31T12:53:09.994Z,0.80
2019-03-31T12:58:13.316Z,0.70
2019-03-31T13:03:16.672Z,0.80
2019-03-31T13:08:19.925Z,1.03
2019-03-31T13:13:23.289Z,0.67
2019-03-31T13:18:28.105Z,0.70
2019-03-31T13:23:31.917Z,1.00
2019-03-31T13:28:35.239Z,0.57
2019-03-31T13:33:39.668Z,0.90
2019-03-31T13:38:42.939Z,0.50
2019-03-31T13:43:46.227Z,1.07
2019-03-31T13:48:49.495Z,0.77
2019-03-31T13:53:52.809Z,0.77
2019-03-31T13:58:56.111Z,0.67
2019-03-31T14:03:59.362Z,0.90
2019-03-31T14:09:05.240Z,0.60
2019-03-31T14:14:08.594Z,0.57
2019-03-31T14:19:13.135Z,1.00
2019-03-31T14:24:16.636Z,0.80
2019-03-31T14:29:20.155Z,0.77
2019-03-31T14:34:23.514Z,0.70
2019-03-31T14:39:26.833Z,0.73
2019-03-31T14:44:30.040Z,0.50
2019-03-31T14:49:34.302Z,1.03
2019-03-31T14:54:37.645Z,0.83
2019-03-31T14:59:41.292Z,0.60
2019-03-31T15:04:44.706Z,0.83
2019-03-31T15:09:48.075Z,0.80
2019-03-31T15:14:51.262Z,0.50
2019-03-31T15:19:54.647Z,0.67
2019-03-31T15:24:58.120Z,0.50
2019-03-31T15:30:01.572Z,0.80
2019-03-31T15:35:06.320Z,0.60
2019-03-31T15:40:09.836Z,0.50
2019-03-31T15:45:13.188Z,0.97
2019-03-31T15:50:17.130Z,0.70
2019-03-31T15:55:20.599Z,0.67
2019-03-31T16:00:23.956Z,0.80
2019-03-31T16:05:27.991Z,0.70
2019-03-31T16:10:30.860Z,0.63
2019-03-31T16:15:33.687Z,0.83
2019-03-31T16:20:36.614Z,0.70
2019-03-31T16:25:42.703Z,0.70
2019-03-31T16:30:45.437Z,0.43
2019-03-31T16:35:48.197Z,0.60
2019-03-31T16:40:50.974Z,0.77
2019-03-31T16:45:53.903Z,0.70
2019-03-31T16:50:57.080Z,0.70
2019-03-31T16:55:59.834Z,0.60
2019-03-31T17:01:02.630Z,0.70
2019-03-31T17:06:05.437Z,0.90
2019-03-31T17:11:08.427Z,0.73
2019-03-31T17:16:11.330Z,1.03
2019-03-31T17:21:14.164Z,0.90
2019-03-31T17:26:16.922Z,0.73
2019-03-31T17:31:19.751Z,1.10
2019-03-31T17:36:22.467Z,0.60
2019-03-31T17:41:25.311Z,0.90
2019-03-31T17:46:28.073Z,0.93
2019-03-31T17:51:35.513Z,1.10
2019-03-31T17:56:44.301Z,0.97
2019-03-31T18:01:51.522Z,1.20
2019-03-31T18:07:03.563Z,1.70
2019-03-31T18:12:07.698Z,0.60
2019-03-31T18:17:10.587Z,1.07
2019-03-31T18:22:16.672Z,1.20
2019-03-31T18:27:18.920Z,0.83
2019-03-31T18:32:21.805Z,1.50
2019-03-31T18:37:24.788Z,0.90
2019-03-31T18:42:30.946Z,2.23
2019-03-31T18:47:33.785Z,0.93
2019-03-31T18:52:40.422Z,1.03
2019-03-31T18:58:18.298Z,1.03
2019-03-31T19:03:36.250Z,0.80
2019-03-31T19:09:07.618Z,0.83
2019-03-31T19:14:31.091Z,1.00
2019-03-31T19:19:56.704Z,1.20
2019-03-31T19:25:31.244Z,1.10
2019-03-31T19:30:54.430Z,1.13
2019-03-31T19:36:20.736Z,1.03
2019-03-31T19:41:55.441Z,1.00
2019-03-31T19:47:25.166Z,1.00
2019-03-31T19:52:52.104Z,1.87
2019-03-31T19:58:13.027Z,1.07
2019-03-31T20:03:34.020Z,1.10
2019-03-31T20:08:56.423Z,1.63
2019-03-31T20:14:24.662Z,1.10
2019-03-31T20:19:49.914Z,1.17
2019-03-31T20:25:00.950Z,0.93
2019-03-31T20:30:23.234Z,1.10
2019-03-31T20:35:44.264Z,1.17
2019-03-31T20:41:05.104Z,1.37
2019-03-31T20:46:09.243Z,1.37
2019-03-31T20:51:12.011Z,1.07
2019-03-31T20:56:14.905Z,1.27
2019-03-31T21:01:17.827Z,1.40
2019-03-31T21:06:20.608Z,1.23
2019-03-31T21:11:23.444Z,1.40
2019-03-31T21:16:26.233Z,1.00
2019-03-31T21:21:29.041Z,1.17
2019-03-31T21:26:31.856Z,0.83
2019-03-31T21:31:34.587Z,1.00
2019-03-31T21:36:37.328Z,1.13
2019-03-31T21:41:40.387Z,1.13
2019-03-31T21:46:43.114Z,1.43
2019-03-31T21:51:45.914Z,0.93
2019-03-31T21:56:49.838Z,1.20
2019-03-31T22:01:53.820Z,1.07
2019-03-31T22:06:56.606Z,0.93
2019-03-31T22:11:59.509Z,0.90
2019-03-31T22:17:03.268Z,0.80
2019-03-31T22:22:06.091Z,1.00
2019-03-31T22:27:08.917Z,1.20
2019-03-31T22:32:11.765Z,0.97
2019-03-31T22:37:14.707Z,1.10
2019-03-31T22:42:17.556Z,1.23
2019-03-31T22:47:20.383Z,1.20
2019-03-31T22:52:23.212Z,1.20
2019-03-31T22:57:25.975Z,1.30
2019-03-31T23:02:28.802Z,1.40
2019-03-31T23:07:31.608Z,1.00
2019-03-31T23:12:34.279Z,1.37
2019-03-31T23:17:37.060Z,1.10
2019-03-31T23:22:39.811Z,1.00
2019-03-31T23:27:42.587Z,1.40
2019-03-31T23:32:45.469Z,1.13
2019-03-31T23:37:48.249Z,1.30
2019-03-31T23:42:51.028Z,1.20
2019-03-31T23:47:53.825Z,0.90
2019-03-31T23:52:56.852Z,1.13
2019-03-31T23:57:59.814Z,1.17
